Rio Rico, Arizona
Current Conditions -  °F | °C
As of 6:54 PM on Wednesday 26 Nov 2014 (Local Time) from KOLS Reporting Station
Clear Clear  
Wind Chill: 59°   Ceiling: Unl
Heat Index: 59°   Visibility: 10mi
Dew Point: 14°   Wind: 0mph
Humidity: 17%   Direction: NA
Pressure: 30.24"   Gusts: NA
Location:  31.49°N, 111.02°W
Report Text: KOLS 270154Z AUTO 00000KT 10SM CLR 15/M10 A3024 RMK AO2 SLP219 T01501100
Loading
Personal Weather Stations






























Interactive Weather Map New forecast layout! Learn more

10-Day Weather Forecast

Advertisements
Track Severe Weather on mobile